< Typhoon 196826 1968 Season Typhoon 196901 >
Typhoon 196827 (ORA)
General InformationTrack Information on Google Maps || Disaster Info.ResourceGoogle EarthGE AnimationAtom FeedGeoJSON
Detalied Best Track (Time Zone = UTC)
Year Month Day Hour Lat. Long. Pressure (hPa) Wind (kt) Class Image Chart
1968 11 19 12 5.0 168.0 1008 0 2 -- Chart
1968 11 19 18 6.3 165.2 1008 0 2 -- Chart
1968 11 20 00 8.0 162.1 1008 0 2 -- Chart
1968 11 20 06 8.3 159.4 1006 0 2 -- Chart
1968 11 20 12 8.5 156.8 1006 0 2 -- Chart
1968 11 20 18 8.6 155.7 1004 0 2 -- Chart
1968 11 21 00 8.7 154.9 1004 0 2 -- Chart
1968 11 21 06 9.0 154.0 1004 0 2 -- Chart
1968 11 21 12 9.3 153.1 1004 0 2 -- Chart
1968 11 21 18 9.7 151.7 1002 0 2 -- Chart
1968 11 22 00 10.7 150.2 998 0 2 -- Chart
1968 11 22 06 11.9 148.9 995 0 9 -- Chart
1968 11 22 12 13.1 146.6 990 0 9 -- Chart
1968 11 22 18 13.6 144.4 985 0 9 -- Chart
1968 11 23 00 14.0 142.7 980 0 9 -- Chart
1968 11 23 06 14.2 141.5 975 0 9 -- Chart
1968 11 23 12 14.4 140.3 970 0 9 -- Chart
1968 11 23 18 14.4 139.3 960 0 9 -- Chart
1968 11 24 00 14.7 138.3 950 0 9 -- Chart
1968 11 24 06 14.9 137.8 940 0 9 -- Chart
1968 11 24 12 15.1 137.3 940 0 9 -- Chart
1968 11 24 18 15.5 137.0 940 0 9 -- Chart
1968 11 25 00 15.8 136.8 935 0 9 -- Chart
1968 11 25 06 16.3 136.5 930 0 9 -- Chart
1968 11 25 12 16.5 136.0 935 0 9 -- Chart
1968 11 25 18 16.5 135.6 935 0 9 -- Chart
1968 11 26 00 16.5 135.2 940 0 9 -- Chart
1968 11 26 06 16.4 134.5 940 0 9 -- Chart
1968 11 26 12 16.1 133.7 945 0 9 -- Chart
1968 11 26 18 16.1 133.0 950 0 9 -- Chart
1968 11 27 00 16.0 132.4 955 0 9 -- Chart
1968 11 27 06 15.7 131.6 960 0 9 -- Chart
1968 11 27 12 15.7 130.4 965 0 9 -- Chart
1968 11 27 18 15.8 129.3 965 0 9 -- Chart
1968 11 28 00 15.5 128.1 960 0 9 -- Chart
1968 11 28 06 15.3 127.0 955 0 9 -- Chart
1968 11 28 12 15.3 125.7 950 0 9 -- Chart
1968 11 28 18 15.3 124.5 950 0 9 -- Chart
1968 11 29 00 15.3 123.3 955 0 9 -- Chart
1968 11 29 06 15.4 123.4 955 0 9 -- Chart
1968 11 29 12 15.7 121.3 975 0 9 -- Chart
1968 11 29 18 16.6 120.0 1000 0 9 -- Chart
1968 11 30 00 16.6 118.4 1010 0 2 -- Chart
1968 11 30 06 15.9 118.0 1010 0 2 -- Chart
1968 11 30 12 15.0 117.5 1010 0 2 -- Chart
1968 11 30 18 14.0 117.0 1010 0 2 -- Chart
Japan Meteorological Agency Best Track Data | Correction Date : 1989-06-01
< Typhoon 196826 1968 Season Typhoon 196901 >

Help